Time;durP1;ratioP1;P1;durP2;ratioP2;P2;SDS_P1;SDS_P2;PMS_P1;PMS_P2;Temp;Humidity;BMP_temperature;BMP_pressure;BME280_temperature;BME280_humidity;BME280_pressure;Samples;Min_cycle;Max_cycle;Signal;HPM_P1;HPM_P2
2022/05/05 00:01:43;;;;;;;6.15;4.53;;;5.00;99.90;;;;;;5013068;28;20108;-50
2022/05/05 00:04:09;;;;;;;6.72;3.95;;;4.90;99.90;;;;;;5012808;28;20099;-49
2022/05/05 00:06:36;;;;;;;5.28;3.80;;;4.80;99.90;;;;;;5012986;28;20105;-52
2022/05/05 00:09:02;;;;;;;6.05;4.32;;;4.80;99.90;;;;;;5012847;28;20061;-49
2022/05/05 00:14:27;;;;;;;5.43;3.78;;;4.70;99.90;;;;;;5012748;28;20048;-55
2022/05/05 00:16:59;;;;;;;7.85;4.10;;;4.70;99.90;;;;;;5012552;28;20446;-49
2022/05/05 00:19:27;;;;;;;6.55;4.40;;;4.70;99.90;;;;;;5012440;28;20521;-52
2022/05/05 00:21:52;;;;;;;4.65;3.97;;;4.60;99.90;;;;;;5012455;28;20026;-52
2022/05/05 00:24:18;;;;;;;5.13;4.03;;;4.60;99.90;;;;;;5001160;28;20026;-50
2022/05/05 00:26:44;;;;;;;5.13;3.78;;;4.60;99.90;;;;;;4992957;28;20149;-49
2022/05/05 00:29:10;;;;;;;4.97;3.97;;;4.50;99.90;;;;;;4992860;28;20027;-54
2022/05/05 00:31:35;;;;;;;6.85;4.30;;;4.50;99.90;;;;;;4992406;28;20030;-52
2022/05/05 00:34:01;;;;;;;8.07;3.95;;;4.50;99.90;;;;;;4992542;28;20073;-52
2022/05/05 00:36:27;;;;;;;6.15;3.67;;;4.50;99.90;;;;;;4992821;28;20034;-55
2022/05/05 00:38:52;;;;;;;4.57;3.58;;;4.50;99.90;;;;;;4992945;28;20554;-50
2022/05/05 00:41:18;;;;;;;6.07;3.45;;;4.50;99.90;;;;;;4974893;28;20037;-53
2022/05/05 00:43:44;;;;;;;5.45;4.53;;;4.40;99.90;;;;;;4992407;28;20101;-55
2022/05/05 00:46:09;;;;;;;7.07;4.03;;;4.40;99.90;;;;;;4992508;28;20552;-53
2022/05/05 00:48:35;;;;;;;9.90;4.10;;;4.30;99.90;;;;;;4992390;28;20030;-54
2022/05/05 00:51:00;;;;;;;5.68;4.32;;;4.30;99.90;;;;;;4992376;28;20026;-50
2022/05/05 00:53:26;;;;;;;5.55;4.18;;;4.20;99.90;;;;;;4991768;28;20026;-51
2022/05/05 00:56:04;;;;;;;4.90;3.97;;;4.20;99.90;;;;;;4975613;28;20918;-51
2022/05/05 00:58:30;;;;;;;8.35;3.88;;;4.10;99.90;;;;;;4993082;28;20022;-52
2022/05/05 01:00:55;;;;;;;7.95;4.38;;;4.10;99.90;;;;;;5009564;28;20096;-50
2022/05/05 01:03:23;;;;;;;6.43;4.78;;;4.10;99.90;;;;;;5009304;28;20044;-49
2022/05/05 01:05:48;;;;;;;4.50;3.88;;;4.10;99.90;;;;;;5010940;28;20033;-53
2022/05/05 01:08:14;;;;;;;6.75;4.15;;;4.10;99.90;;;;;;5011713;28;20026;-52
2022/05/05 01:10:39;;;;;;;8.07;4.60;;;4.00;99.90;;;;;;5010999;28;20486;-50
2022/05/05 01:13:05;;;;;;;6.18;4.13;;;4.00;99.90;;;;;;4993743;28;20034;-50
2022/05/05 01:15:32;;;;;;;9.18;4.30;;;3.90;99.90;;;;;;5011924;28;20034;-52
2022/05/05 01:17:57;;;;;;;6.43;4.50;;;3.90;99.90;;;;;;5011389;28;20018;-49
2022/05/05 01:20:23;;;;;;;4.63;4.20;;;3.90;99.90;;;;;;4993568;28;20509;-50
2022/05/05 01:22:52;;;;;;;7.57;4.13;;;3.90;99.90;;;;;;4993670;28;20025;-49
2022/05/05 01:28:12;;;;;;;6.32;4.22;;;3.90;99.90;;;;;;5011394;28;20055;-48
2022/05/05 01:30:48;;;;;;;6.68;4.57;;;3.80;99.90;;;;;;5011424;28;20181;-49
2022/05/05 01:33:24;;;;;;;6.35;4.18;;;3.80;99.90;;;;;;5010977;28;20022;-50
2022/05/05 01:35:52;;;;;;;4.53;4.03;;;3.70;99.90;;;;;;5011154;28;20033;-51
2022/05/05 01:38:19;;;;;;;6.28;4.57;;;3.70;99.90;;;;;;5011219;28;20026;-52
2022/05/05 01:40:48;;;;;;;4.90;4.15;;;3.70;99.90;;;;;;5011204;28;20022;-51
2022/05/05 01:43:15;;;;;;;5.53;4.47;;;3.70;99.90;;;;;;4993040;28;20030;-50
2022/05/05 01:45:41;;;;;;;7.97;4.78;;;3.70;99.90;;;;;;5010864;28;20523;-52
2022/05/05 01:48:07;;;;;;;5.13;4.43;;;3.70;99.90;;;;;;5011089;28;20053;-53
2022/05/05 01:50:33;;;;;;;6.55;4.03;;;3.70;99.90;;;;;;4993564;28;20108;-49
2022/05/05 01:53:00;;;;;;;6.22;5.07;;;3.60;99.90;;;;;;4993418;28;20026;-49
2022/05/05 01:55:33;;;;;;;6.25;4.68;;;3.60;99.90;;;;;;5010732;28;20033;-49
2022/05/05 01:58:00;;;;;;;7.28;5.13;;;3.60;99.90;;;;;;5010861;28;20021;-53
2022/05/05 02:00:26;;;;;;;4.90;4.38;;;3.70;99.90;;;;;;5010694;28;20014;-49
2022/05/05 02:02:52;;;;;;;6.57;4.28;;;3.60;99.90;;;;;;5010524;28;20111;-52
2022/05/05 02:05:18;;;;;;;7.25;4.50;;;3.60;99.90;;;;;;4992920;28;20045;-50
2022/05/05 02:07:45;;;;;;;6.22;4.47;;;3.50;99.90;;;;;;4992698;28;20494;-52
2022/05/05 02:10:14;;;;;;;5.75;4.20;;;3.50;99.90;;;;;;5010712;28;20029;-51
2022/05/05 02:12:40;;;;;;;5.53;4.75;;;3.60;99.90;;;;;;5010388;28;20030;-50
2022/05/05 02:15:08;;;;;;;4.22;3.83;;;3.50;99.90;;;;;;5010340;28;20034;-51
2022/05/05 02:17:38;;;;;;;8.07;4.35;;;3.50;99.90;;;;;;5010489;28;20029;-49
2022/05/05 02:20:05;;;;;;;6.60;4.38;;;3.40;99.90;;;;;;5010349;28;20025;-50
2022/05/05 02:22:31;;;;;;;5.03;4.18;;;3.40;99.90;;;;;;5009514;28;20398;-49
2022/05/05 02:24:56;;;;;;;5.85;4.68;;;3.40;99.90;;;;;;5010251;28;20028;-50
2022/05/05 02:27:22;;;;;;;4.18;3.78;;;3.40;99.90;;;;;;5010316;28;20503;-54
2022/05/05 02:29:48;;;;;;;6.50;4.70;;;3.30;99.90;;;;;;5010531;28;20021;-49
2022/05/05 02:32:14;;;;;;;8.10;4.30;;;3.30;99.90;;;;;;5010528;28;20033;-51
2022/05/05 02:34:40;;;;;;;6.55;4.38;;;3.30;99.90;;;;;;5010467;28;20101;-49
2022/05/05 02:39:59;;;;;;;8.10;4.50;;;3.30;99.90;;;;;;4987091;28;20104;-51
2022/05/05 02:42:24;;;;;;;6.78;4.50;;;3.20;99.90;;;;;;4992431;28;20386;-50
2022/05/05 02:44:50;;;;;;;5.75;4.78;;;3.20;99.90;;;;;;5010040;28;20486;-50
2022/05/05 02:47:16;;;;;;;9.45;5.10;;;3.20;99.90;;;;;;4992494;28;20037;-50
2022/05/05 02:49:42;;;;;;;5.75;4.50;;;3.20;99.90;;;;;;5010096;28;20026;-52
2022/05/05 02:52:08;;;;;;;6.45;4.32;;;3.10;99.90;;;;;;5009891;28;20167;-51
2022/05/05 02:54:47;;;;;;;5.65;4.68;;;3.10;99.90;;;;;;5009861;28;20045;-50
2022/05/05 02:57:13;;;;;;;7.88;4.43;;;3.00;99.90;;;;;;4992210;28;20034;-53
2022/05/05 02:59:39;;;;;;;6.22;4.90;;;3.00;99.90;;;;;;5009983;28;20574;-52
2022/05/05 03:02:05;;;;;;;6.05;4.43;;;3.00;99.90;;;;;;4991805;28;20026;-53
2022/05/05 03:04:30;;;;;;;5.55;4.70;;;3.00;99.90;;;;;;5009743;28;20679;-49
2022/05/05 03:06:56;;;;;;;6.03;4.55;;;2.90;99.90;;;;;;5009998;28;20029;-51
2022/05/05 03:09:21;;;;;;;5.93;4.68;;;2.90;99.90;;;;;;5010294;28;20057;-49
2022/05/05 03:11:47;;;;;;;9.45;4.63;;;2.80;99.90;;;;;;5010009;28;20037;-51
2022/05/05 03:14:12;;;;;;;7.68;4.32;;;2.80;99.90;;;;;;4992296;28;20409;-50
2022/05/05 03:16:38;;;;;;;7.63;5.05;;;2.80;99.90;;;;;;5009770;28;20492;-49
2022/05/05 03:19:05;;;;;;;8.57;5.20;;;2.80;99.90;;;;;;5009456;28;20068;-51
2022/05/05 03:21:30;;;;;;;6.28;5.10;;;2.70;99.90;;;;;;5009901;28;20513;-49
2022/05/05 03:23:56;;;;;;;6.45;4.53;;;2.70;99.90;;;;;;5009882;28;20490;-50
2022/05/05 03:26:21;;;;;;;5.82;4.57;;;2.70;99.90;;;;;;5009594;28;20041;-50
2022/05/05 03:28:47;;;;;;;6.18;4.32;;;2.70;99.90;;;;;;5009603;28;20036;-50
2022/05/05 03:31:12;;;;;;;5.65;4.90;;;2.70;99.90;;;;;;5009473;28;20033;-53
2022/05/05 03:33:38;;;;;;;6.05;5.28;;;2.60;99.90;;;;;;5011454;28;20037;-49
2022/05/05 03:36:04;;;;;;;5.75;4.82;;;2.60;99.90;;;;;;5013598;28;20033;-51
2022/05/05 03:38:30;;;;;;;7.95;4.97;;;2.50;99.90;;;;;;5013546;28;20037;-48
2022/05/05 03:40:55;;;;;;;7.95;5.45;;;2.50;99.90;;;;;;5013434;28;20030;-49
2022/05/05 03:43:21;;;;;;;6.25;5.20;;;2.50;99.90;;;;;;5012983;28;20547;-48
2022/05/05 03:45:46;;;;;;;11.10;5.65;;;2.40;99.90;;;;;;5013516;28;20042;-51
2022/05/05 03:48:12;;;;;;;10.73;5.35;;;2.40;99.90;;;;;;5013568;28;20108;-48
2022/05/05 03:50:38;;;;;;;7.50;5.30;;;2.40;99.90;;;;;;5013593;28;20497;-50
2022/05/05 03:53:05;;;;;;;7.03;5.13;;;2.40;99.90;;;;;;5013163;28;20034;-49
2022/05/05 03:55:30;;;;;;;7.60;5.43;;;2.40;99.90;;;;;;5012946;28;20037;-48
2022/05/05 03:57:56;;;;;;;7.65;5.18;;;2.40;99.90;;;;;;5013125;28;20026;-51
2022/05/05 04:00:23;;;;;;;5.18;4.57;;;2.40;99.90;;;;;;5013079;28;20030;-51
2022/05/05 04:03:30;;;;;;;7.78;5.75;;;2.40;99.90;;;;;;4995093;28;20416;-48
2022/05/05 04:05:35;;;;;;;7.20;5.40;;;2.50;99.90;;;;;;5012606;28;20041;-49
2022/05/05 04:08:02;;;;;;;6.50;4.95;;;2.50;99.90;;;;;;5012752;28;20098;-50
2022/05/05 04:10:28;;;;;;;5.43;4.85;;;2.60;99.90;;;;;;5012736;28;20045;-50
2022/05/05 04:12:54;;;;;;;5.82;5.22;;;2.60;99.90;;;;;;5012534;28;20062;-48
2022/05/05 04:15:20;;;;;;;8.30;5.55;;;2.60;99.90;;;;;;5012482;28;20524;-49
2022/05/05 04:17:45;;;;;;;6.53;5.63;;;2.70;99.90;;;;;;5012546;28;20057;-52
2022/05/05 04:20:12;;;;;;;7.40;4.85;;;2.70;99.90;;;;;;5012450;28;20072;-48
2022/05/05 04:22:38;;;;;;;6.43;5.15;;;2.70;99.90;;;;;;5012452;28;20113;-49
2022/05/05 04:25:04;;;;;;;6.85;5.10;;;2.80;99.90;;;;;;5012671;28;20084;-49
2022/05/05 04:27:31;;;;;;;7.43;5.15;;;2.80;99.90;;;;;;5012792;28;20038;-53
2022/05/05 04:29:56;;;;;;;8.40;5.30;;;2.80;99.90;;;;;;5012959;28;20375;-51
2022/05/05 04:32:22;;;;;;;5.53;4.32;;;2.90;99.90;;;;;;5012463;28;20037;-50
2022/05/05 04:34:47;;;;;;;6.75;5.18;;;2.90;99.90;;;;;;5012432;28;20102;-50
2022/05/05 04:37:13;;;;;;;7.15;4.80;;;3.00;99.90;;;;;;5012271;28;20029;-50
2022/05/05 04:39:39;;;;;;;5.88;5.20;;;3.00;99.90;;;;;;5012434;28;20390;-49
2022/05/05 04:42:06;;;;;;;10.35;4.95;;;3.10;99.90;;;;;;5012176;28;20022;-48
2022/05/05 04:44:31;;;;;;;10.35;5.55;;;3.10;99.90;;;;;;5010971;28;20053;-51
2022/05/05 04:46:57;;;;;;;5.85;4.28;;;3.10;99.90;;;;;;5012305;28;20497;-49
2022/05/05 04:49:22;;;;;;;7.13;5.43;;;3.20;99.90;;;;;;5012418;28;20510;-50
2022/05/05 04:51:48;;;;;;;6.38;5.28;;;3.20;99.90;;;;;;5011772;28;20418;-51
2022/05/05 04:54:14;;;;;;;6.07;5.45;;;3.30;99.90;;;;;;5011996;28;20076;-52
2022/05/05 04:56:39;;;;;;;5.85;5.25;;;3.30;99.90;;;;;;5012058;28;20117;-49
2022/05/05 04:59:05;;;;;;;10.00;5.63;;;3.40;99.90;;;;;;5011969;28;20025;-54
2022/05/05 05:01:30;;;;;;;7.65;4.90;;;3.40;99.90;;;;;;4994327;28;20121;-53
2022/05/05 05:03:56;;;;;;;8.18;4.97;;;3.50;99.90;;;;;;5012143;28;20097;-52
2022/05/05 05:06:22;;;;;;;7.15;4.78;;;3.50;99.90;;;;;;4994486;28;20022;-51
2022/05/05 05:08:47;;;;;;;7.65;5.40;;;3.50;99.90;;;;;;5012141;28;20040;-53
2022/05/05 05:11:13;;;;;;;6.53;4.60;;;3.60;99.90;;;;;;5011822;28;20025;-51
2022/05/05 05:13:39;;;;;;;7.22;5.50;;;3.70;99.90;;;;;;5011957;28;20629;-52
2022/05/05 05:16:05;;;;;;;6.50;5.35;;;3.70;99.90;;;;;;5011787;28;20085;-50
2022/05/05 05:18:30;;;;;;;14.10;5.18;;;3.80;99.90;;;;;;5011470;28;20036;-49
2022/05/05 05:20:56;;;;;;;8.85;5.70;;;3.90;99.90;;;;;;5011743;28;20022;-51
2022/05/05 05:23:22;;;;;;;8.80;4.68;;;4.00;99.90;;;;;;5011534;28;20781;-49
2022/05/05 05:25:48;;;;;;;5.15;4.47;;;4.20;99.90;;;;;;5011442;28;20105;-52
2022/05/05 05:28:14;;;;;;;8.18;4.40;;;4.30;99.90;;;;;;4993901;28;20121;-53
2022/05/05 05:30:40;;;;;;;5.97;4.50;;;4.40;99.90;;;;;;5011458;28;20061;-53
2022/05/05 05:33:06;;;;;;;6.70;4.50;;;4.50;99.90;;;;;;5011006;28;20076;-49
2022/05/05 05:35:32;;;;;;;7.45;4.57;;;4.70;99.90;;;;;;5011284;28;20021;-50
2022/05/05 05:37:58;;;;;;;5.30;4.28;;;4.80;99.90;;;;;;5011392;28;20037;-54
2022/05/05 05:40:23;;;;;;;6.53;3.70;;;5.00;99.90;;;;;;5011544;28;20441;-50
2022/05/05 05:42:49;;;;;;;7.40;3.70;;;5.00;99.90;;;;;;5011230;28;20018;-50
2022/05/05 05:45:15;;;;;;;8.95;3.78;;;5.20;99.90;;;;;;5011378;28;20065;-50
2022/05/05 05:47:40;;;;;;;4.40;3.35;;;5.40;99.90;;;;;;5011185;28;20030;-53
2022/05/05 05:50:06;;;;;;;8.18;3.53;;;5.50;99.90;;;;;;5011207;28;20026;-50
2022/05/05 05:52:32;;;;;;;10.25;3.65;;;5.70;99.90;;;;;;4993285;28;20026;-51
2022/05/05 05:54:58;;;;;;;10.68;3.42;;;5.80;99.90;;;;;;4993359;28;20034;-51
2022/05/05 05:57:24;;;;;;;7.68;3.22;;;6.00;99.90;;;;;;5010592;28;20026;-49
2022/05/05 05:59:49;;;;;;;11.82;3.35;;;6.10;99.90;;;;;;5010994;28;20478;-52
2022/05/05 06:04:59;;;;;;;5.15;3.05;;;6.40;99.90;;;;;;5010668;28;20102;-49
2022/05/05 06:07:24;;;;;;;4.60;2.50;;;6.50;99.90;;;;;;5010726;28;20049;-48
2022/05/05 06:09:50;;;;;;;10.63;3.50;;;6.70;99.90;;;;;;5010648;28;20026;-49
2022/05/05 06:12:15;;;;;;;3.80;2.50;;;6.80;99.90;;;;;;5010436;28;20050;-47
2022/05/05 06:14:41;;;;;;;6.13;3.08;;;7.00;99.90;;;;;;5010475;28;20091;-49
2022/05/05 06:17:06;;;;;;;4.80;3.03;;;7.10;99.90;;;;;;5010403;28;20030;-52
2022/05/05 06:19:32;;;;;;;5.00;2.42;;;7.30;99.90;;;;;;5010200;28;20034;-49
2022/05/05 06:21:58;;;;;;;7.53;2.92;;;7.50;99.90;;;;;;5010528;28;20030;-52
2022/05/05 06:24:23;;;;;;;7.75;2.50;;;7.70;99.90;;;;;;5010477;28;20470;-52
2022/05/05 06:26:49;;;;;;;7.55;2.28;;;7.90;99.90;;;;;;5010153;28;20108;-49
2022/05/05 06:29:14;;;;;;;7.13;2.67;;;8.00;99.90;;;;;;5010389;28;20076;-48
2022/05/05 06:31:40;;;;;;;6.10;2.40;;;8.20;99.90;;;;;;5010075;28;20492;-47
2022/05/05 06:34:05;;;;;;;4.75;2.42;;;8.30;99.90;;;;;;5010260;28;20036;-50
2022/05/05 06:36:31;;;;;;;5.40;2.70;;;8.40;99.90;;;;;;5009851;28;20490;-50
2022/05/05 06:38:56;;;;;;;2.92;2.28;;;8.60;99.90;;;;;;5010294;28;20479;-50
2022/05/05 06:41:22;;;;;;;3.03;2.72;;;8.70;99.90;;;;;;5009844;28;20046;-49
2022/05/05 06:43:48;;;;;;;3.00;2.42;;;8.90;99.90;;;;;;5010223;28;20030;-49
2022/05/05 06:46:13;;;;;;;6.13;2.47;;;9.10;99.90;;;;;;5009754;28;20025;-49
2022/05/05 06:48:39;;;;;;;5.47;2.25;;;9.40;99.90;;;;;;5010085;28;20040;-49
2022/05/05 06:51:04;;;;;;;4.78;1.88;;;9.50;99.90;;;;;;5010147;28;20037;-51
2022/05/05 06:53:30;;;;;;;4.78;1.92;;;9.60;99.90;;;;;;5009742;28;20593;-49
2022/05/05 06:55:58;;;;;;;5.50;2.15;;;9.70;99.90;;;;;;5009703;28;20026;-49
2022/05/05 06:58:24;;;;;;;5.07;2.10;;;9.90;99.90;;;;;;5010042;28;20505;-52
2022/05/05 07:03:34;;;;;;;2.10;1.80;;;10.10;99.90;;;;;;5010236;28;20520;-56
2022/05/05 07:06:01;;;;;;;5.43;1.83;;;10.10;99.90;;;;;;5009786;28;20033;-53
2022/05/05 07:08:27;;;;;;;4.13;1.83;;;10.10;99.90;;;;;;4993798;28;20075;-55
2022/05/05 07:10:53;;;;;;;3.95;2.08;;;10.10;99.90;;;;;;4980032;28;20437;-54
2022/05/05 07:13:20;;;;;;;4.78;2.55;;;10.20;99.90;;;;;;5013482;28;20076;-48
2022/05/05 07:15:45;;;;;;;2.63;1.70;;;10.50;99.90;;;;;;5013515;28;20030;-51
2022/05/05 07:18:11;;;;;;;3.28;2.05;;;10.70;99.90;;;;;;5013344;28;20032;-51
2022/05/05 07:20:37;;;;;;;5.47;2.50;;;11.00;99.90;;;;;;5013332;28;20033;-53
2022/05/05 07:23:04;;;;;;;5.90;2.47;;;11.20;99.90;;;;;;5013596;28;20037;-48
2022/05/05 07:25:30;;;;;;;8.27;2.25;;;11.20;99.90;;;;;;5013499;28;20022;-50
2022/05/05 07:27:55;;;;;;;3.90;2.15;;;11.30;99.90;;;;;;5013712;28;20488;-52
2022/05/05 07:30:22;;;;;;;4.47;1.95;;;11.60;99.90;;;;;;5013574;28;20464;-50
2022/05/05 07:32:48;;;;;;;4.47;2.03;;;11.60;99.90;;;;;;5013455;28;20087;-49
2022/05/05 07:35:13;;;;;;;9.40;2.20;;;11.70;99.90;;;;;;5013670;28;20113;-50
2022/05/05 07:37:39;;;;;;;7.15;1.83;;;11.90;99.90;;;;;;4995944;28;20064;-48
2022/05/05 07:40:06;;;;;;;5.20;1.95;;;11.70;99.90;;;;;;5013901;28;20026;-47
2022/05/05 07:42:32;;;;;;;3.13;1.50;;;11.60;99.90;;;;;;4995836;28;20033;-54
2022/05/05 07:44:58;;;;;;;11.57;2.20;;;11.40;99.90;;;;;;5013573;28;20026;-52
2022/05/05 07:47:25;;;;;;;2.83;1.60;;;11.60;99.90;;;;;;5013397;28;20030;-48
2022/05/05 07:49:51;;;;;;;6.65;1.95;;;11.90;99.90;;;;;;5013182;28;20030;-51
2022/05/05 07:52:16;;;;;;;3.88;1.90;;;12.30;99.90;;;;;;5012967;28;20025;-48
2022/05/05 07:54:44;;;;;;;3.67;1.48;;;12.60;99.90;;;;;;5012952;28;20354;-52
2022/05/05 07:57:14;;;;;;;4.80;1.77;;;12.80;99.90;;;;;;5013277;28;20030;-51
2022/05/05 07:59:42;;;;;;;3.35;1.65;;;13.10;99.90;;;;;;4996088;28;20463;-50
2022/05/05 08:02:09;;;;;;;3.67;1.63;;;13.30;99.90;;;;;;5013124;28;20030;-49
2022/05/05 08:04:35;;;;;;;2.78;1.80;;;13.50;99.90;;;;;;4994976;28;20482;-48
2022/05/05 08:07:01;;;;;;;11.10;2.50;;;13.60;99.90;;;;;;5012892;28;20044;-51
2022/05/05 08:09:27;;;;;;;4.97;1.98;;;13.10;99.90;;;;;;4995286;28;20034;-51
2022/05/05 08:11:52;;;;;;;6.93;1.60;;;13.10;99.90;;;;;;5012600;28;20030;-48
2022/05/05 08:14:18;;;;;;;2.58;1.98;;;13.20;99.90;;;;;;5012917;28;20026;-47
2022/05/05 08:16:44;;;;;;;5.35;1.90;;;13.20;99.90;;;;;;5012704;28;20026;-48
2022/05/05 08:19:09;;;;;;;8.13;2.00;;;13.30;99.90;;;;;;5012061;28;20033;-48
2022/05/05 08:21:35;;;;;;;7.05;2.22;;;13.00;99.90;;;;;;5012703;28;20041;-47
2022/05/05 08:29:28;;;;;;;7.28;2.08;;;13.90;99.90;;;;;;5012481;28;20516;-48
2022/05/05 08:31:55;;;;;;;3.75;1.65;;;14.20;99.90;;;;;;5012092;28;20034;-48
2022/05/05 08:34:21;;;;;;;3.08;1.70;;;14.40;99.60;;;;;;5012331;28;20022;-47
2022/05/05 08:36:47;;;;;;;4.10;1.80;;;14.60;99.50;;;;;;5012189;28;20025;-52
2022/05/05 08:39:12;;;;;;;2.70;1.48;;;14.90;98.60;;;;;;5012163;28;20477;-51
2022/05/05 08:41:40;;;;;;;2.90;1.30;;;15.10;97.90;;;;;;5011749;28;20096;-48
2022/05/05 08:44:05;;;;;;;3.90;1.77;;;15.30;96.60;;;;;;5011968;28;20029;-48
2022/05/05 08:46:33;;;;;;;3.47;1.98;;;15.20;96.30;;;;;;5012082;28;20022;-49
2022/05/05 08:49:04;;;;;;;5.15;1.67;;;15.30;96.70;;;;;;5012035;28;20029;-47
2022/05/05 08:51:41;;;;;;;6.57;1.83;;;15.20;95.90;;;;;;5011868;28;20022;-48
2022/05/05 08:54:09;;;;;;;3.33;1.52;;;14.80;95.30;;;;;;4994367;28;20060;-48
2022/05/05 08:56:35;;;;;;;3.30;1.63;;;14.90;96.20;;;;;;5012294;28;20176;-48
2022/05/05 08:59:02;;;;;;;4.07;1.42;;;15.10;96.00;;;;;;5012181;28;20105;-50
2022/05/05 09:01:34;;;;;;;2.13;1.40;;;15.10;94.30;;;;;;4994005;28;20018;-47
2022/05/05 09:03:59;;;;;;;7.93;1.42;;;15.10;95.20;;;;;;5011683;28;20053;-50
2022/05/05 09:06:51;;;;;;;3.50;1.35;;;15.20;94.60;;;;;;4994171;28;20080;-52
2022/05/05 09:09:35;;;;;;;3.92;1.45;;;15.20;95.20;;;;;;5011928;28;20056;-52
2022/05/05 09:12:09;;;;;;;4.93;2.20;;;15.40;95.30;;;;;;5011461;28;20034;-50
2022/05/05 09:14:55;;;;;;;4.70;2.00;;;15.60;96.60;;;;;;5011582;28;20505;-54
2022/05/05 09:17:23;;;;;;;5.30;1.40;;;15.50;93.90;;;;;;5011676;28;20042;-53
2022/05/05 09:19:54;;;;;;;2.60;1.88;;;15.60;95.50;;;;;;5011482;28;20755;-48
2022/05/05 09:22:22;;;;;;;7.50;2.95;;;15.30;93.70;;;;;;4993937;28;20684;-52
2022/05/05 09:24:50;;;;;;;5.90;1.55;;;15.20;94.80;;;;;;5011484;28;20033;-49
2022/05/05 09:27:25;;;;;;;3.53;1.55;;;15.30;94.60;;;;;;4994041;28;20528;-49
2022/05/05 09:30:04;;;;;;;1.90;1.67;;;15.40;94.40;;;;;;5011757;28;20096;-52
2022/05/05 09:32:30;;;;;;;2.83;1.45;;;15.50;92.40;;;;;;5011272;28;20382;-53
2022/05/05 09:35:10;;;;;;;3.00;1.60;;;15.20;92.70;;;;;;5011593;28;20429;-50
2022/05/05 09:37:37;;;;;;;4.88;2.13;;;15.50;94.40;;;;;;5011466;28;20040;-49
2022/05/05 09:40:06;;;;;;;7.03;2.30;;;15.40;93.40;;;;;;5011415;28;20029;-54
2022/05/05 09:42:45;;;;;;;2.63;1.92;;;15.30;94.20;;;;;;5010969;28;20109;-49
2022/05/05 09:45:12;;;;;;;2.60;1.80;;;15.30;93.80;;;;;;5011133;28;20029;-49
2022/05/05 09:47:39;;;;;;;5.47;2.22;;;15.40;94.10;;;;;;5011107;28;20077;-52
2022/05/05 09:50:06;;;;;;;2.95;1.80;;;15.50;94.10;;;;;;5011413;28;20026;-48
2022/05/05 09:58:12;;;;;;;4.65;2.03;;;15.80;93.40;;;;;;5011173;28;20053;-49
2022/05/05 10:01:13;;;;;;;3.05;1.67;;;16.00;94.00;;;;;;5010919;28;20040;-48
2022/05/05 10:04:00;;;;;;;3.72;1.95;;;16.10;92.90;;;;;;5007320;28;20038;-49
2022/05/05 10:06:34;;;;;;;4.63;2.33;;;16.30;91.90;;;;;;5010686;28;20128;-51
2022/05/05 10:09:12;;;;;;;4.72;1.52;;;16.50;92.40;;;;;;5010982;28;20064;-50
2022/05/05 10:11:37;;;;;;;4.88;1.80;;;16.40;91.10;;;;;;5010634;28;20040;-49
2022/05/05 10:14:12;;;;;;;5.50;2.15;;;16.20;92.00;;;;;;5010914;28;20105;-50
2022/05/05 10:16:39;;;;;;;2.70;1.63;;;16.10;91.90;;;;;;5010776;28;20125;-50
2022/05/05 10:19:06;;;;;;;2.85;1.73;;;15.80;92.00;;;;;;5010257;28;20017;-51
2022/05/05 10:21:49;;;;;;;3.58;1.85;;;15.90;92.90;;;;;;5010480;28;20064;-54
2022/05/05 10:24:43;;;;;;;2.50;1.80;;;16.00;92.20;;;;;;5010355;28;20096;-50
2022/05/05 10:27:10;;;;;;;2.28;2.08;;;15.90;93.30;;;;;;5010470;28;20041;-53
2022/05/05 10:29:40;;;;;;;4.97;2.05;;;16.00;92.50;;;;;;5010393;28;20026;-48
2022/05/05 10:32:18;;;;;;;6.30;2.45;;;16.00;93.70;;;;;;5010329;28;20494;-52
2022/05/05 10:34:54;;;;;;;4.55;2.20;;;15.90;92.80;;;;;;5010282;28;20514;-50
2022/05/05 10:37:31;;;;;;;7.55;2.25;;;16.00;92.50;;;;;;4994359;28;20058;-48
2022/05/05 10:40:08;;;;;;;2.80;1.83;;;16.00;92.70;;;;;;5010503;28;20065;-50
2022/05/05 10:42:45;;;;;;;3.53;2.30;;;16.20;94.00;;;;;;4991611;28;20025;-51
2022/05/05 10:45:16;;;;;;;4.88;3.20;;;16.00;92.70;;;;;;5010197;28;20053;-53
2022/05/05 10:47:58;;;;;;;2.90;2.00;;;15.80;92.10;;;;;;4992642;28;20524;-48
2022/05/05 10:50:33;;;;;;;2.38;1.70;;;15.70;92.70;;;;;;5010386;28;20030;-52
2022/05/05 10:53:01;;;;;;;4.20;1.80;;;15.90;93.40;;;;;;5010615;28;20555;-47
2022/05/05 10:55:32;;;;;;;2.03;1.60;;;16.20;93.20;;;;;;5010427;28;20409;-50
2022/05/05 10:57:57;;;;;;;2.90;1.90;;;16.10;92.30;;;;;;5010193;28;20107;-48
2022/05/05 11:00:23;;;;;;;2.88;1.70;;;16.00;93.00;;;;;;5010260;28;20551;-49
2022/05/05 11:02:58;;;;;;;3.83;1.98;;;16.00;91.60;;;;;;5009852;28;20033;-49
2022/05/05 11:05:29;;;;;;;4.78;1.85;;;16.10;92.90;;;;;;5009933;28;20026;-50
2022/05/05 11:08:14;;;;;;;2.72;1.52;;;16.20;92.20;;;;;;5009888;28;20026;-49
2022/05/05 11:13:41;;;;;;;3.20;1.65;;;16.10;91.60;;;;;;5010216;28;20080;-54
2022/05/05 11:22:30;;;;;;;3.63;2.00;;;16.00;91.80;;;;;;5010582;28;20417;-51
2022/05/05 11:24:56;;;;;;;2.67;2.10;;;16.20;92.60;;;;;;4950886;28;20034;-53
2022/05/05 11:27:24;;;;;;;3.88;3.05;;;16.20;92.90;;;;;;5010773;28;20029;-54
2022/05/05 11:29:51;;;;;;;3.70;2.38;;;16.40;92.70;;;;;;5009823;28;20081;-52
2022/05/05 11:32:18;;;;;;;3.63;2.70;;;16.60;92.10;;;;;;5009923;28;20397;-55
2022/05/05 11:34:45;;;;;;;3.55;2.38;;;16.70;92.60;;;;;;4992285;28;20033;-51
2022/05/05 11:37:11;;;;;;;7.38;2.67;;;16.80;92.70;;;;;;5009770;28;20030;-53
2022/05/05 11:39:38;;;;;;;2.65;2.22;;;16.80;92.50;;;;;;5009740;28;20022;-49
2022/05/05 11:42:05;;;;;;;3.63;2.60;;;16.80;91.60;;;;;;5009507;28;20026;-54
2022/05/05 11:44:32;;;;;;;4.45;2.35;;;16.80;91.50;;;;;;5009481;28;20030;-50
2022/05/05 11:47:09;;;;;;;5.97;2.25;;;16.60;91.20;;;;;;5009717;28;20026;-52
2022/05/05 11:49:35;;;;;;;3.47;2.20;;;16.60;92.30;;;;;;5009447;28;20022;-52
2022/05/05 11:52:01;;;;;;;4.28;2.40;;;16.80;91.70;;;;;;5009299;28;20548;-49
2022/05/05 11:54:30;;;;;;;3.55;2.22;;;16.70;90.70;;;;;;5010755;28;20053;-51
2022/05/05 11:56:56;;;;;;;3.38;2.08;;;16.80;91.60;;;;;;5013025;28;20066;-52
2022/05/05 12:02:23;;;;;;;4.05;2.05;;;16.80;91.70;;;;;;5013112;28;20041;-54
2022/05/05 12:04:53;;;;;;;6.88;2.40;;;16.90;91.80;;;;;;5012705;28;20034;-48
2022/05/05 12:07:21;;;;;;;2.90;1.85;;;16.80;91.50;;;;;;4995555;28;20041;-55
2022/05/05 12:09:54;;;;;;;4.90;2.30;;;16.80;90.60;;;;;;5013409;28;20034;-50
2022/05/05 12:12:22;;;;;;;3.33;2.60;;;16.80;92.70;;;;;;5013154;28;20146;-50
2022/05/05 12:14:59;;;;;;;4.07;2.72;;;17.00;92.60;;;;;;5012822;28;20025;-51
2022/05/05 12:17:32;;;;;;;9.93;3.25;;;17.10;91.30;;;;;;5012759;28;20037;-53
2022/05/05 12:20:00;;;;;;;5.53;3.35;;;17.00;92.20;;;;;;5013278;28;20037;-52
2022/05/05 12:22:31;;;;;;;3.08;2.38;;;17.10;91.60;;;;;;4995160;28;20363;-52
2022/05/05 12:25:04;;;;;;;6.15;3.10;;;17.20;91.90;;;;;;5012553;28;20026;-50
2022/05/05 12:27:30;;;;;;;7.03;3.00;;;17.50;91.00;;;;;;5012502;28;20105;-52
2022/05/05 12:29:56;;;;;;;3.40;2.83;;;17.70;91.50;;;;;;5012471;28;20117;-52
2022/05/05 12:32:22;;;;;;;3.88;3.03;;;17.80;91.20;;;;;;5012353;28;20076;-50
2022/05/05 12:34:48;;;;;;;5.63;3.67;;;18.00;92.20;;;;;;5012241;28;20034;-48
2022/05/05 12:37:20;;;;;;;6.85;4.18;;;18.10;91.20;;;;;;5012438;28;20488;-51
2022/05/05 12:40:06;;;;;;;6.43;4.82;;;18.00;90.70;;;;;;5012393;28;20030;-48
2022/05/05 12:42:48;;;;;;;5.13;4.57;;;17.60;90.80;;;;;;4994613;28;20096;-49
2022/05/05 12:45:26;;;;;;;6.28;4.18;;;17.70;91.40;;;;;;5012355;28;20062;-51
2022/05/05 12:47:54;;;;;;;6.15;4.97;;;17.90;91.90;;;;;;5012574;28;20065;-48
2022/05/05 12:50:40;;;;;;;7.03;4.80;;;18.10;91.50;;;;;;5012681;28;20547;-50
2022/05/05 13:01:32;;;;;;;6.38;4.75;;;17.70;91.80;;;;;;5012015;28;20041;-48
2022/05/05 13:04:01;;;;;;;6.75;5.20;;;17.70;91.70;;;;;;5011932;28;20022;-54
2022/05/05 13:06:27;;;;;;;6.50;4.65;;;17.70;91.40;;;;;;5010727;28;20597;-49
2022/05/05 13:08:53;;;;;;;7.45;5.03;;;17.90;92.30;;;;;;5011843;28;20030;-51
2022/05/05 13:11:20;;;;;;;9.05;4.25;;;18.00;91.60;;;;;;5011525;28;20084;-53
2022/05/05 13:13:48;;;;;;;8.73;4.93;;;18.00;91.10;;;;;;4994244;28;20030;-50
2022/05/05 13:16:14;;;;;;;5.93;3.83;;;17.70;91.30;;;;;;5012005;28;20030;-48
2022/05/05 13:18:39;;;;;;;7.93;4.80;;;17.90;91.10;;;;;;5011700;28;20037;-52
2022/05/05 13:21:05;;;;;;;10.35;4.57;;;18.00;91.00;;;;;;4994196;28;20022;-51
2022/05/05 13:23:31;;;;;;;12.88;5.07;;;18.00;91.00;;;;;;5011918;28;20026;-51
2022/05/05 13:25:57;;;;;;;6.43;3.83;;;17.90;91.40;;;;;;5011987;28;20065;-51
2022/05/05 13:28:23;;;;;;;10.10;4.57;;;17.90;91.80;;;;;;5011693;28;20022;-54
2022/05/05 13:30:48;;;;;;;4.40;4.00;;;18.00;90.80;;;;;;5011368;28;20529;-53
2022/05/05 13:33:14;;;;;;;6.35;4.47;;;18.00;91.80;;;;;;5011267;28;20030;-51
2022/05/05 13:35:39;;;;;;;4.72;3.65;;;17.90;91.00;;;;;;5011433;28;20397;-52
2022/05/05 13:38:05;;;;;;;4.38;3.75;;;17.90;91.40;;;;;;5011191;28;20119;-48
2022/05/05 13:40:31;;;;;;;5.63;4.00;;;17.90;91.40;;;;;;5011255;28;20032;-52
2022/05/05 13:42:57;;;;;;;4.50;3.78;;;18.00;91.80;;;;;;5011061;28;20446;-52